createdAt,value
2022-09-10T00:02:25.249Z,100560.53
2022-09-10T00:04:57.220Z,100562.66
2022-09-10T00:07:28.943Z,100562.09
2022-09-10T00:10:00.503Z,100559.66
2022-09-10T00:12:32.053Z,100559.41
2022-09-10T00:15:04.133Z,100567.47
2022-09-10T00:17:36.811Z,100566.91
2022-09-10T00:20:09.503Z,100559.41
2022-09-10T00:22:41.020Z,100563.16
2022-09-10T00:25:12.820Z,100565.28
2022-09-10T00:27:44.326Z,100559.34
2022-09-10T00:30:16.263Z,100562.28
2022-09-10T00:32:52.591Z,100556.59
2022-09-10T00:35:24.658Z,100553.84
2022-09-10T00:37:56.955Z,100555.88
2022-09-10T00:40:29.046Z,100552.66
2022-09-10T00:43:00.535Z,100551.50
2022-09-10T00:45:32.503Z,100544.28
2022-09-10T00:48:04.047Z,100546.16
2022-09-10T00:50:36.411Z,100549.88
2022-09-10T00:53:07.983Z,100546.66
2022-09-10T00:55:40.203Z,100548.28
2022-09-10T00:58:11.739Z,100548.72
2022-09-10T01:00:43.662Z,100544.66
2022-09-10T01:03:15.920Z,100544.91
2022-09-10T01:05:47.787Z,100546.28
2022-09-10T01:08:19.741Z,100545.47
2022-09-10T01:10:52.287Z,100548.41
2022-09-10T01:13:24.307Z,100556.19
2022-09-10T01:15:55.837Z,100547.91
2022-09-10T01:18:28.229Z,100554.56
2022-09-10T01:20:59.791Z,100563.66
2022-09-10T01:23:31.686Z,100548.66
2022-09-10T01:26:03.404Z,100551.00
2022-09-10T01:28:35.382Z,100549.63
2022-09-10T01:31:06.970Z,100543.72
2022-09-10T01:33:38.834Z,100552.81
2022-09-10T01:36:11.713Z,100549.88
2022-09-10T01:38:43.580Z,100560.84
2022-09-10T01:41:15.086Z,100562.47
2022-09-10T01:43:47.112Z,100557.09
2022-09-10T01:46:19.187Z,100559.22
2022-09-10T01:48:51.122Z,100558.09
2022-09-10T01:51:22.689Z,100553.78
2022-09-10T01:53:56.713Z,100551.03
2022-09-10T01:56:28.221Z,100549.41
2022-09-10T01:59:00.185Z,100544.84
2022-09-10T02:01:31.734Z,100543.22
2022-09-10T02:04:03.619Z,100553.63
2022-09-10T02:06:36.005Z,100558.88
2022-09-10T02:09:07.583Z,100553.28
2022-09-10T02:11:39.095Z,100549.56
2022-09-10T02:14:14.418Z,100553.53
2022-09-10T02:16:46.999Z,100555.41
2022-09-10T02:19:18.874Z,100554.56
2022-09-10T02:21:50.368Z,100553.19
2022-09-10T02:24:22.476Z,100554.72
2022-09-10T02:26:54.676Z,100565.09
2022-09-10T02:29:26.499Z,100563.22
2022-09-10T02:31:57.986Z,100568.50
2022-09-10T02:34:30.866Z,100562.34
2022-09-10T02:37:03.540Z,100571.91
2022-09-10T02:39:36.124Z,100572.84
2022-09-10T02:42:07.815Z,100568.78
2022-09-10T02:44:39.646Z,100572.19
2022-09-10T02:47:11.152Z,100572.19
2022-09-10T02:49:43.078Z,100573.72
2022-09-10T02:52:14.572Z,100571.03
2022-09-10T02:54:46.378Z,100573.47
2022-09-10T02:57:18.323Z,100572.06
2022-09-10T02:59:49.838Z,100576.38
2022-09-10T03:02:21.633Z,100572.44
2022-09-10T03:04:53.161Z,100576.16
2022-09-10T03:07:25.170Z,100573.97
2022-09-10T03:09:56.695Z,100571.78
2022-09-10T03:12:28.466Z,100573.06
2022-09-10T03:14:59.952Z,100580.50
2022-09-10T03:17:32.708Z,100573.78
2022-09-10T03:20:04.227Z,100575.41
2022-09-10T03:22:35.789Z,100564.47
2022-09-10T03:25:07.980Z,100563.66
2022-09-10T03:27:40.874Z,100567.38
2022-09-10T03:30:12.368Z,100566.31
2022-09-10T03:32:44.633Z,100570.63
2022-09-10T03:35:16.873Z,100568.44
2022-09-10T03:37:49.455Z,100569.94
2022-09-10T03:40:20.938Z,100562.66
2022-09-10T03:42:52.491Z,100559.72
2022-09-10T03:45:24.044Z,100563.22
2022-09-10T03:47:55.931Z,100562.66
2022-09-10T03:50:27.432Z,100561.84
2022-09-10T03:52:59.268Z,100557.78
2022-09-10T03:55:30.765Z,100565.22
2022-09-10T03:58:02.536Z,100553.34
2022-09-10T04:00:34.069Z,100561.38
2022-09-10T04:03:06.094Z,100561.59
2022-09-10T04:05:37.591Z,100556.50
2022-09-10T04:08:10.174Z,100560.13
2022-09-10T04:10:41.699Z,100558.84
2022-09-10T04:13:13.715Z,100556.06
2022-09-10T04:15:46.169Z,100562.13
2022-09-10T04:18:18.015Z,100566.41
2022-09-10T04:20:49.602Z,100571.19
2022-09-10T04:23:21.479Z,100568.97
2022-09-10T04:25:53.158Z,100573.75
2022-09-10T04:28:24.960Z,100564.09
2022-09-10T04:30:56.515Z,100564.09
2022-09-10T04:33:28.353Z,100567.84
2022-09-10T04:36:01.011Z,100568.41
2022-09-10T04:38:32.748Z,100568.16
2022-09-10T04:41:04.438Z,100571.91
2022-09-10T04:43:36.396Z,100574.94
2022-09-10T04:46:07.932Z,100565.88
2022-09-10T04:48:39.956Z,100568.31
2022-09-10T04:51:17.432Z,100566.22
2022-09-10T04:53:49.673Z,100570.75
2022-09-10T04:56:21.168Z,100568.63
2022-09-10T04:58:52.974Z,100575.63
2022-09-10T05:01:24.555Z,100567.69
2022-09-10T05:03:56.462Z,100572.81
2022-09-10T05:06:27.959Z,100576.88
2022-09-10T05:08:59.752Z,100578.59
2022-09-10T05:11:31.443Z,100578.59
2022-09-10T05:14:03.076Z,100576.63
2022-09-10T05:16:34.956Z,100587.66
2022-09-10T05:19:06.506Z,100585.91
2022-09-10T05:21:38.403Z,100581.13
2022-09-10T05:24:09.897Z,100581.47
2022-09-10T05:26:42.295Z,100576.22
2022-09-10T05:29:14.102Z,100577.59
2022-09-10T05:31:45.969Z,100578.03
2022-09-10T05:34:17.466Z,100576.03
2022-09-10T05:36:49.486Z,100576.72
2022-09-10T05:39:20.986Z,100580.63
2022-09-10T05:41:52.879Z,100578.81
2022-09-10T05:44:24.362Z,100578.34
2022-09-10T05:46:56.147Z,100581.53
2022-09-10T05:49:27.767Z,100578.44
2022-09-10T05:51:59.704Z,100584.06
2022-09-10T05:54:31.180Z,100577.50
2022-09-10T05:57:03.213Z,100581.22
2022-09-10T05:59:34.703Z,100593.88
2022-09-10T06:02:06.605Z,100593.44
2022-09-10T06:04:38.185Z,100593.69
2022-09-10T06:07:10.056Z,100591.16
2022-09-10T06:09:41.559Z,100595.94
2022-09-10T06:12:13.561Z,100605.44
2022-09-10T06:14:45.111Z,100607.81
2022-09-10T06:17:20.129Z,100606.50
2022-09-10T06:19:51.897Z,100602.38
2022-09-10T06:22:23.699Z,100605.81
2022-09-10T06:24:55.371Z,100611.38
2022-09-10T06:27:27.184Z,100616.22
2022-09-10T06:29:58.699Z,100615.69
2022-09-10T06:32:30.503Z,100613.13
2022-09-10T06:35:02.006Z,100615.16
2022-09-10T06:37:34.933Z,100610.03
2022-09-10T06:40:06.954Z,100605.97
2022-09-10T06:42:38.957Z,100613.16
2022-09-10T06:45:10.477Z,100611.31
2022-09-10T06:50:33.812Z,100608.88
2022-09-10T06:53:05.649Z,100604.63
2022-09-10T06:55:37.126Z,100608.31
2022-09-10T06:58:09.582Z,100601.44
2022-09-10T07:00:41.411Z,100613.66
2022-09-10T07:03:13.259Z,100608.09
2022-09-10T07:05:46.073Z,100603.00
2022-09-10T07:08:17.589Z,100603.00
2022-09-10T07:10:49.595Z,100602.19
2022-09-10T07:13:21.119Z,100600.34
2022-09-10T07:15:53.140Z,100602.78
2022-09-10T07:18:24.658Z,100605.22
2022-09-10T07:20:56.480Z,100609.53
2022-09-10T07:23:27.970Z,100607.94
2022-09-10T07:25:59.932Z,100609.22
2022-09-10T07:28:32.008Z,100610.25
2022-09-10T07:31:03.899Z,100603.53
2022-09-10T07:33:36.155Z,100606.22
2022-09-10T07:36:08.800Z,100613.63
2022-09-10T07:38:40.783Z,100608.22
2022-09-10T07:41:12.760Z,100613.56
2022-09-10T07:43:44.335Z,100614.75
2022-09-10T07:46:16.784Z,100608.41
2022-09-10T07:48:51.664Z,100611.25
2022-09-10T07:51:23.799Z,100616.66
2022-09-10T07:53:55.348Z,100606.47
2022-09-10T07:56:27.280Z,100614.00
2022-09-10T07:58:58.777Z,100612.09
2022-09-10T08:01:31.238Z,100618.91
2022-09-10T08:04:05.030Z,100615.19
2022-09-10T08:06:37.470Z,100625.28
2022-09-10T08:09:09.067Z,100625.81
2022-09-10T08:11:40.926Z,100621.84
2022-09-10T08:14:13.321Z,100619.69
2022-09-10T08:16:45.246Z,100615.78
2022-09-10T08:19:18.113Z,100617.22
2022-09-10T08:21:50.081Z,100620.38
2022-09-10T08:24:21.566Z,100620.00
2022-09-10T08:26:53.490Z,100615.06
2022-09-10T08:29:25.018Z,100620.84
2022-09-10T08:31:56.865Z,100616.84
2022-09-10T08:34:29.668Z,100622.78
2022-09-10T08:37:02.019Z,100621.06
2022-09-10T08:39:33.935Z,100618.59
2022-09-10T08:42:05.481Z,100618.41
2022-09-10T08:44:37.417Z,100621.56
2022-09-10T08:47:08.907Z,100625.25
2022-09-10T08:49:40.795Z,100390.28
2022-09-10T08:52:13.274Z,100628.56
2022-09-10T08:54:45.706Z,100625.94
2022-09-10T08:57:17.211Z,100629.56
2022-09-10T08:59:50.384Z,100620.72
2022-09-10T09:02:44.787Z,100630.50
2022-09-10T09:05:13.499Z,100626.38
2022-09-10T09:07:45.015Z,100623.28
2022-09-10T09:10:16.970Z,100623.28
2022-09-10T09:12:48.464Z,100623.97
2022-09-10T09:15:20.256Z,100623.03
2022-09-10T09:17:51.757Z,100618.06
2022-09-10T09:20:23.618Z,100627.03
2022-09-10T09:22:55.211Z,100619.53
2022-09-10T09:25:27.554Z,100622.91
2022-09-10T09:27:59.054Z,100620.59
2022-09-10T09:30:32.296Z,100622.16
2022-09-10T09:33:03.847Z,100615.47
2022-09-10T09:35:37.497Z,100619.25
2022-09-10T09:38:09.219Z,100612.00
2022-09-10T09:40:41.042Z,100610.84
2022-09-10T09:43:12.524Z,100615.06
2022-09-10T09:45:44.386Z,100610.56
2022-09-10T09:48:15.911Z,100606.63
2022-09-10T09:50:47.737Z,100608.91
2022-09-10T09:53:19.259Z,100612.75
2022-09-10T09:55:52.508Z,100602.00
2022-09-10T09:58:24.177Z,100601.19
2022-09-10T10:00:56.034Z,100593.50
2022-09-10T10:03:27.572Z,100590.22
2022-09-10T10:05:59.838Z,100589.50
2022-09-10T10:08:31.430Z,100591.19
2022-09-10T10:11:03.282Z,100591.06
2022-09-10T10:13:34.769Z,100589.44
2022-09-10T10:16:06.643Z,100588.66
2022-09-10T10:18:38.203Z,100588.09
2022-09-10T10:21:10.578Z,100589.06
2022-09-10T10:23:42.073Z,100582.66
2022-09-10T10:26:13.981Z,100578.84
2022-09-10T10:28:45.467Z,100589.56
2022-09-10T10:31:17.369Z,100581.47
2022-09-10T10:33:48.882Z,100581.91
2022-09-10T10:36:21.128Z,100580.56
2022-09-10T10:38:53.298Z,100583.81
2022-09-10T10:41:25.992Z,100584.41
2022-09-10T10:43:57.481Z,100572.91
2022-09-10T10:46:29.382Z,100577.91
2022-09-10T10:49:03.974Z,100584.75
2022-09-10T10:51:35.603Z,100583.69
2022-09-10T10:54:07.402Z,100577.44
2022-09-10T10:56:38.922Z,100573.91
2022-09-10T10:59:10.797Z,100580.66
2022-09-10T11:01:42.369Z,100569.88
2022-09-10T11:04:14.274Z,100570.66
2022-09-10T11:06:46.802Z,100583.88
2022-09-10T11:09:18.866Z,100579.28
2022-09-10T11:11:50.337Z,100575.03
2022-09-10T11:14:23.445Z,100569.56
2022-09-10T11:16:58.580Z,100569.34
2022-09-10T11:19:35.889Z,100563.75
2022-09-10T11:22:07.372Z,100567.31
2022-09-10T11:24:39.350Z,100568.25
2022-09-10T11:27:10.829Z,100557.09
2022-09-10T11:29:42.385Z,100560.22
2022-09-10T11:32:13.974Z,100553.78
2022-09-10T11:34:47.923Z,100554.25
2022-09-10T11:37:19.416Z,100557.00
2022-09-10T11:39:55.388Z,100552.53
2022-09-10T11:42:26.884Z,100559.56
2022-09-10T11:44:58.704Z,100566.41
2022-09-10T11:47:30.159Z,100567.50
2022-09-10T11:50:02.504Z,100565.22
2022-09-10T11:52:35.144Z,100558.81
2022-09-10T11:55:08.777Z,100557.75
2022-09-10T11:57:40.238Z,100548.47
2022-09-10T12:00:12.727Z,100548.69
2022-09-10T12:02:44.182Z,100555.41
2022-09-10T12:05:16.387Z,100352.34
2022-09-10T12:07:49.083Z,100546.88
2022-09-10T12:10:20.935Z,100544.84
2022-09-10T12:12:53.313Z,100550.16
2022-09-10T12:15:25.129Z,100542.31
2022-09-10T12:17:56.596Z,100543.75
2022-09-10T12:20:28.550Z,100537.25
2022-09-10T12:23:00.025Z,100537.41
2022-09-10T12:25:34.483Z,100529.81
2022-09-10T12:28:08.086Z,100533.31
2022-09-10T12:30:40.170Z,100530.97
2022-09-10T12:33:11.646Z,100532.03
2022-09-10T12:35:43.520Z,100533.66
2022-09-10T12:38:14.974Z,100530.16
2022-09-10T12:40:49.790Z,100528.34
2022-09-10T12:43:21.615Z,100532.84
2022-09-10T12:45:54.065Z,100522.03
2022-09-10T12:48:27.152Z,100519.56
2022-09-10T12:50:58.947Z,100517.78
2022-09-10T12:53:31.815Z,100524.69
2022-09-10T12:56:05.438Z,100524.84
2022-09-10T12:58:37.405Z,100519.63
2022-09-10T13:01:08.955Z,100512.56
2022-09-10T13:03:40.586Z,100513.81
2022-09-10T13:06:12.153Z,100511.00
2022-09-10T13:08:43.926Z,100514.69
2022-09-10T13:11:15.738Z,100499.88
2022-09-10T13:13:47.622Z,100504.53
2022-09-10T13:16:19.079Z,100498.91
2022-09-10T13:18:55.042Z,100490.06
2022-09-10T13:21:28.333Z,100494.63
2022-09-10T13:24:00.203Z,100493.00
2022-09-10T13:26:32.186Z,100490.00
2022-09-10T13:29:04.047Z,100491.88
2022-09-10T13:31:35.666Z,100492.09
2022-09-10T13:34:07.473Z,100498.28
2022-09-10T13:36:38.978Z,100494.72
2022-09-10T13:39:12.439Z,100496.94
2022-09-10T13:41:43.899Z,100494.94
2022-09-10T13:44:16.135Z,100491.81
2022-09-10T13:46:47.613Z,100495.97
2022-09-10T13:49:19.621Z,100471.38
2022-09-10T13:51:51.726Z,100475.38
2022-09-10T13:54:24.230Z,100471.97
2022-09-10T13:56:55.745Z,100480.41
2022-09-10T13:59:30.631Z,100482.25
2022-09-10T14:02:02.483Z,100485.72
2022-09-10T14:04:35.663Z,100492.81
2022-09-10T14:07:07.748Z,100498.22
2022-09-10T14:09:39.749Z,100490.03
2022-09-10T14:12:11.897Z,100489.72
2022-09-10T14:14:43.388Z,100488.78
2022-09-10T14:17:15.400Z,100492.00
2022-09-10T14:19:49.206Z,100483.56
2022-09-10T14:22:26.158Z,100487.16
2022-09-10T14:24:58.346Z,100489.59
2022-09-10T14:27:31.258Z,100496.75
2022-09-10T14:30:02.775Z,100502.41
2022-09-10T14:32:34.623Z,100506.16
2022-09-10T14:35:07.805Z,100495.44
2022-09-10T14:37:39.658Z,100496.13
2022-09-10T14:40:11.658Z,100493.41
2022-09-10T14:42:43.575Z,100503.38
2022-09-10T14:45:16.360Z,100491.94
2022-09-10T14:47:48.196Z,100503.78
2022-09-10T14:50:19.713Z,100492.19
2022-09-10T14:52:51.528Z,100499.75
2022-09-10T14:55:25.893Z,100500.53
2022-09-10T14:57:57.707Z,100495.84
2022-09-10T15:00:29.227Z,100488.00
2022-09-10T15:03:01.378Z,100483.84
2022-09-10T15:05:32.867Z,100491.66
2022-09-10T15:08:04.679Z,100487.44
2022-09-10T15:10:36.150Z,100482.16
2022-09-10T15:13:07.952Z,100472.91
2022-09-10T15:15:39.493Z,100477.19
2022-09-10T15:18:11.296Z,100477.06
2022-09-10T15:20:42.768Z,100480.81
2022-09-10T15:23:15.169Z,100490.00
2022-09-10T15:25:46.654Z,100492.94
2022-09-10T15:28:19.590Z,100492.97
2022-09-10T15:30:51.315Z,100486.41
2022-09-10T15:33:23.199Z,100490.75
2022-09-10T15:35:54.670Z,100488.19
2022-09-10T15:38:26.640Z,100493.34
2022-09-10T15:40:58.349Z,100490.84
2022-09-10T15:43:30.291Z,100493.09
2022-09-10T15:46:01.830Z,100483.84
2022-09-10T15:48:34.132Z,100493.56
2022-09-10T15:51:05.684Z,100495.25
2022-09-10T15:53:37.510Z,100497.16
2022-09-10T15:56:09.243Z,100499.44
2022-09-10T15:58:41.139Z,100505.00
2022-09-10T16:01:12.838Z,100498.25
2022-09-10T16:03:44.724Z,100505.53
2022-09-10T16:06:16.714Z,100516.22
2022-09-10T16:08:49.089Z,100506.75
2022-09-10T16:11:20.932Z,100499.91
2022-09-10T16:13:53.383Z,100503.03
2022-09-10T16:16:27.069Z,100510.16
2022-09-10T16:18:58.544Z,100506.34
2022-09-10T16:21:30.375Z,100515.28
2022-09-10T16:24:01.930Z,100508.41
2022-09-10T16:26:34.775Z,100521.66
2022-09-10T16:29:06.379Z,100523.94
2022-09-10T16:31:39.491Z,100520.50
2022-09-10T16:34:11.421Z,100526.19
2022-09-10T16:36:43.816Z,100527.50
2022-09-10T16:39:15.525Z,100526.00
2022-09-10T16:41:47.471Z,100530.88
2022-09-10T16:44:19.094Z,100526.41
2022-09-10T16:46:51.035Z,100541.72
2022-09-10T16:49:23.359Z,100538.09
2022-09-10T16:51:55.175Z,100545.69
2022-09-10T16:54:26.725Z,100546.47
2022-09-10T16:56:58.651Z,100551.06
2022-09-10T16:59:30.489Z,100559.06
2022-09-10T17:02:02.634Z,100563.47
2022-09-10T17:04:34.674Z,100560.47
2022-09-10T17:07:07.226Z,100556.41
2022-09-10T17:09:38.672Z,100551.72
2022-09-10T17:15:02.863Z,100560.47
2022-09-10T17:17:34.741Z,100553.47
2022-09-10T17:20:07.342Z,100551.91
2022-09-10T17:22:39.269Z,100553.41
2022-09-10T17:25:11.649Z,100546.44
2022-09-10T17:27:43.509Z,100549.00
2022-09-10T17:30:14.987Z,100555.06
2022-09-10T17:32:46.927Z,100553.53
2022-09-10T17:35:18.411Z,100557.72
2022-09-10T17:37:49.891Z,100566.66
2022-09-10T17:40:21.428Z,100563.47
2022-09-10T17:42:53.684Z,100567.34
2022-09-10T17:45:25.144Z,100573.91
2022-09-10T17:47:57.085Z,100576.09
2022-09-10T17:50:28.573Z,100577.28
2022-09-10T17:53:00.484Z,100457.31
2022-09-10T17:55:33.784Z,100588.50
2022-09-10T17:58:05.679Z,100584.72
2022-09-10T18:00:37.164Z,100588.53
2022-09-10T18:03:09.771Z,100592.91
2022-09-10T18:05:41.228Z,100600.22
2022-09-10T18:08:13.227Z,100594.56
2022-09-10T18:10:45.230Z,100603.47
2022-09-10T18:13:19.608Z,100595.19
2022-09-10T18:15:51.112Z,100592.75
2022-09-10T18:18:22.612Z,100603.00
2022-09-10T18:20:54.130Z,100601.13
2022-09-10T18:23:26.047Z,100611.13
2022-09-10T18:25:57.524Z,100611.13
2022-09-10T18:28:29.554Z,100612.72
2022-09-10T18:31:02.434Z,100462.63
2022-09-10T18:33:34.842Z,100616.28
2022-09-10T18:36:06.700Z,100615.47
2022-09-10T18:38:38.236Z,100612.50
2022-09-10T18:41:10.096Z,100623.03
2022-09-10T18:43:41.695Z,100623.56
2022-09-10T18:46:13.446Z,100621.41
2022-09-10T18:48:46.809Z,100623.31
2022-09-10T18:51:18.863Z,100625.19
2022-09-10T18:53:50.389Z,100622.75
2022-09-10T18:56:23.970Z,100614.13
2022-09-10T18:58:56.052Z,100613.88
2022-09-10T19:01:28.003Z,100613.31
2022-09-10T19:03:59.533Z,100607.91
2022-09-10T19:06:31.477Z,100605.75
2022-09-10T19:09:04.553Z,100610.88
2022-09-10T19:11:36.411Z,100607.91
2022-09-10T19:14:08.630Z,100607.38
2022-09-10T19:16:41.624Z,100610.34
2022-09-10T19:19:16.503Z,100607.91
2022-09-10T19:21:48.368Z,100606.56
2022-09-10T19:24:32.953Z,100607.91
2022-09-10T19:27:11.777Z,100605.72
2022-09-10T19:29:44.273Z,100601.41
2022-09-10T19:32:17.378Z,100605.47
2022-09-10T19:34:49.314Z,100599.78
2022-09-10T19:37:20.840Z,100603.81
2022-09-10T19:39:52.866Z,100595.19
2022-09-10T19:42:24.430Z,100594.09
2022-09-10T19:44:56.241Z,100596.25
2022-09-10T19:47:27.703Z,100594.38
2022-09-10T19:49:59.539Z,100597.59
2022-09-10T19:52:32.639Z,100597.31
2022-09-10T19:55:04.423Z,100591.13
2022-09-10T19:57:35.916Z,100598.13
2022-09-10T20:00:08.639Z,100602.72
2022-09-10T20:02:40.196Z,100596.50
2022-09-10T20:05:12.067Z,100618.88
2022-09-10T20:07:44.002Z,100602.13
2022-09-10T20:10:15.903Z,100600.50
2022-09-10T20:12:47.432Z,100605.09
2022-09-10T20:15:19.453Z,100602.13
2022-09-10T20:17:51.391Z,100611.81
2022-09-10T20:20:23.360Z,100606.69
2022-09-10T20:22:58.217Z,100602.91
2022-09-10T20:25:32.051Z,100608.00
2022-09-10T20:28:03.641Z,100607.44
2022-09-10T20:30:36.422Z,100618.19
2022-09-10T20:33:07.902Z,100619.00
2022-09-10T20:35:39.734Z,100617.38
2022-09-10T20:38:11.202Z,100621.63
2022-09-10T20:40:42.749Z,100616.47
2022-09-10T20:43:14.204Z,100613.22
2022-09-10T20:45:47.053Z,100620.19
2022-09-10T20:48:18.531Z,100615.84
2022-09-10T20:50:50.457Z,100612.88
2022-09-10T20:53:21.951Z,100617.97
2022-09-10T20:55:54.287Z,100620.56
2022-09-10T20:58:25.821Z,100619.19
2022-09-10T21:00:57.409Z,100617.56
2022-09-10T21:03:28.872Z,100625.59
2022-09-10T21:06:01.940Z,100614.81
2022-09-10T21:08:33.559Z,100612.34
2022-09-10T21:11:05.348Z,100614.44
2022-09-10T21:13:37.370Z,100618.97
2022-09-10T21:16:09.296Z,100623.81
2022-09-10T21:18:43.815Z,100632.16
2022-09-10T21:21:16.519Z,100630.53
2022-09-10T21:23:47.979Z,100634.03
2022-09-10T21:26:20.981Z,100632.91
2022-09-10T21:28:52.442Z,100629.69
2022-09-10T21:31:24.343Z,100628.31
2022-09-10T21:34:00.644Z,100622.09
2022-09-10T21:36:35.121Z,100621.03
2022-09-10T21:39:06.691Z,100620.47
2022-09-10T21:41:39.445Z,100625.84
2022-09-10T21:44:12.568Z,100626.09
2022-09-10T21:46:44.444Z,100633.06
2022-09-10T21:49:16.337Z,100634.38
2022-09-10T21:51:47.836Z,100636.44
2022-09-10T21:54:20.632Z,100638.25
2022-09-10T21:56:52.256Z,100640.13
2022-09-10T21:59:25.733Z,100638.50
2022-09-10T22:01:57.275Z,100637.94
2022-09-10T22:04:29.161Z,100647.06
2022-09-10T22:07:04.633Z,100646.00
2022-09-10T22:09:36.480Z,100642.19
2022-09-10T22:12:07.999Z,100641.91
2022-09-10T22:14:39.887Z,100643.22
2022-09-10T22:17:11.375Z,100647.53
2022-09-10T22:19:43.996Z,100650.22
2022-09-10T22:22:15.465Z,100652.91
2022-09-10T22:24:47.312Z,100655.03
2022-09-10T22:27:18.773Z,100657.41
2022-09-10T22:29:51.738Z,100653.63
2022-09-10T22:32:23.630Z,100657.63
2022-09-10T22:34:55.085Z,100652.50
2022-09-10T22:37:27.008Z,100653.56
2022-09-10T22:40:00.364Z,100654.06
2022-09-10T22:42:32.257Z,100651.59
2022-09-10T22:45:03.726Z,100650.22
2022-09-10T22:47:35.517Z,100654.78
2022-09-10T22:50:06.967Z,100652.31
2022-09-10T22:52:38.943Z,100658.44
2022-09-10T22:55:10.442Z,100660.00
2022-09-10T22:57:42.003Z,100665.63
2022-09-10T23:00:13.475Z,100663.75
2022-09-10T23:02:46.610Z,100665.38
2022-09-10T23:05:18.111Z,100668.06
2022-09-10T23:07:50.074Z,100664.81
2022-09-10T23:10:21.542Z,100668.56
2022-09-10T23:12:53.332Z,100669.38
2022-09-10T23:15:24.792Z,100672.31
2022-09-10T23:17:56.586Z,100666.88
2022-09-10T23:20:28.065Z,100673.31
2022-09-10T23:22:59.855Z,100672.75
2022-09-10T23:25:31.323Z,100673.81
2022-09-10T23:28:07.123Z,100671.13
2022-09-10T23:30:38.803Z,100673.25
2022-09-10T23:33:10.633Z,100677.81
2022-09-10T23:35:42.093Z,100672.69
2022-09-10T23:38:13.953Z,100678.28
2022-09-10T23:40:45.720Z,100677.41
2022-09-10T23:43:17.954Z,100678.09
2022-09-10T23:45:49.418Z,100681.00
2022-09-10T23:48:22.518Z,100677.50
2022-09-10T23:50:54.336Z,100686.38
2022-09-10T23:53:26.166Z,100682.63
2022-09-10T23:55:57.630Z,100687.44
2022-09-10T23:58:29.436Z,100689.06
